Time;durP1;ratioP1;P1;durP2;ratioP2;P2;SDS_P1;SDS_P2;PMS_P1;PMS_P2;Temp;Humidity;BMP_temperature;BMP_pressure;BME280_temperature;BME280_humidity;BME280_pressure;Samples;Min_cycle;Max_cycle;Signal;HPM_P1;HPM_P2
2021/08/10 00:02:18;;;;;;;;;;;;;;;19.17;70.36;100561.13;1613576;87;20168;-89
2021/08/10 00:04:44;;;;;;;;;;;;;;;19.16;70.55;100563.52;1614004;87;20157;-88
2021/08/10 00:07:10;;;;;;;;;;;;;;;19.11;70.56;100556.59;1615135;87;20951;-90
2021/08/10 00:09:35;;;;;;;;;;;;;;;19.10;70.18;100556.30;1608973;87;20292;-88
2021/08/10 00:12:01;;;;;;;;;;;;;;;19.13;69.60;100547.86;1624706;87;20551;-89
2021/08/10 00:14:27;;;;;;;;;;;;;;;19.09;70.64;100547.94;1609919;87;20591;-91
2021/08/10 00:16:52;;;;;;;;;;;;;;;18.93;71.75;100549.96;1615346;87;20263;-88
2021/08/10 00:19:18;;;;;;;;;;;;;;;18.87;71.79;100549.42;1618870;87;21061;-89
2021/08/10 00:21:43;;;;;;;;;;;;;;;18.90;70.55;100544.20;1604366;87;20139;-89
2021/08/10 00:24:09;;;;;;;;;;;;;;;18.83;72.01;100546.80;1613420;87;20153;-89
2021/08/10 00:26:34;;;;;;;;;;;;;;;18.73;73.16;100551.20;1626840;87;20136;-88
2021/08/10 00:29:03;;;;;;;;;;;;;;;18.69;73.54;100558.48;1617100;87;20467;-89
2021/08/10 00:31:29;;;;;;;;;;;;;;;18.62;73.49;100555.27;1613821;87;21112;-88
2021/08/10 00:33:54;;;;;;;;;;;;;;;18.54;74.09;100560.80;1617955;87;20605;-88
2021/08/10 00:36:20;;;;;;;;;;;;;;;18.50;74.42;100558.19;1618149;87;20133;-88
2021/08/10 00:38:45;;;;;;;;;;;;;;;18.42;74.85;100561.04;1611316;87;20124;-89
2021/08/10 00:41:11;;;;;;;;;;;;;;;18.38;75.01;100558.44;1620540;87;20141;-89
2021/08/10 00:43:38;;;;;;;;;;;;;;;18.35;75.32;100565.02;1618121;87;21182;-89
2021/08/10 00:46:08;;;;;;;;;;;;;;;18.30;75.55;100557.59;1606690;87;20307;-88
2021/08/10 00:48:33;;;;;;;;;;;;;;;18.39;74.68;100559.58;1626682;87;20237;-89
2021/08/10 00:50:59;;;;;;;;;;;;;;;18.44;74.32;100564.33;1615040;87;20140;-89
2021/08/10 00:53:25;;;;;;;;;;;;;;;18.47;74.26;100555.91;1614669;87;20206;-89
2021/08/10 00:55:51;;;;;;;;;;;;;;;18.50;74.24;100562.20;1612220;87;21875;-88
2021/08/10 00:58:16;;;;;;;;;;;;;;;18.47;74.38;100562.60;1631684;86;20166;-89
2021/08/10 01:00:42;;;;;;;;;;;;;;;18.45;74.47;100563.32;1637261;86;20143;-87
2021/08/10 01:03:07;;;;;;;;;;;;;;;18.44;74.31;100561.66;1637166;87;20172;-88
2021/08/10 01:05:34;;;;;;;;;;;;;;;18.45;74.41;100563.32;1638967;85;20283;-88
2021/08/10 01:08:10;;;;;;;;;;;;;;;18.42;73.50;100564.53;1598944;87;21262;-88
2021/08/10 01:10:39;;;;;;;;;;;;;;;18.40;72.77;100559.09;1638987;87;20473;-89
2021/08/10 01:13:14;;;;;;;;;;;;;;;18.47;72.64;100561.27;1635074;87;20246;-90
2021/08/10 01:15:46;;;;;;;;;;;;;;;18.43;72.79;100560.03;1640962;85;20687;-89
2021/08/10 01:18:17;;;;;;;;;;;;;;;18.23;72.85;100562.06;1641837;85;20232;-88
2021/08/10 01:21:14;;;;;;;;;;;;;;;18.09;73.87;100557.67;1639495;87;21090;-89
2021/08/10 01:23:39;;;;;;;;;;;;;;;18.01;74.58;100550.62;1640152;85;20265;-89
2021/08/10 01:26:23;;;;;;;;;;;;;;;17.99;74.88;100550.50;1635869;85;20263;-89
2021/08/10 01:29:19;;;;;;;;;;;;;;;17.93;75.81;100554.79;1641146;87;20191;-88
2021/08/10 01:31:46;;;;;;;;;;;;;;;17.88;75.79;100552.70;1634513;85;20246;-89
2021/08/10 01:34:17;;;;;;;;;;;;;;;17.81;76.35;100551.78;1639055;87;21192;-89
2021/08/10 01:36:44;;;;;;;;;;;;;;;17.78;76.63;100545.49;1641272;85;20123;-89
2021/08/10 01:39:09;;;;;;;;;;;;;;;17.77;76.69;100545.16;1638569;85;20242;-89
2021/08/10 01:41:35;;;;;;;;;;;;;;;17.75;76.53;100545.36;1640548;86;20135;-90
2021/08/10 01:44:00;;;;;;;;;;;;;;;17.77;76.83;100545.16;1581672;87;20193;-89
2021/08/10 01:46:26;;;;;;;;;;;;;;;17.79;76.33;100543.14;1636779;87;22102;-90
2021/08/10 01:48:52;;;;;;;;;;;;;;;17.81;76.21;100543.77;1637890;87;20237;-89
2021/08/10 01:51:21;;;;;;;;;;;;;;;17.79;75.24;100544.48;1641281;85;20209;-89
2021/08/10 01:53:46;;;;;;;;;;;;;;;17.82;75.08;100544.09;1639087;85;20176;-89
2021/08/10 01:56:12;;;;;;;;;;;;;;;17.90;74.59;100534.62;1638476;87;20180;-89
2021/08/10 01:58:37;;;;;;;;;;;;;;;17.98;74.59;100542.18;1635743;86;21337;-88
2021/08/10 02:01:03;;;;;;;;;;;;;;;17.96;74.80;100542.37;1641257;85;20958;-89
2021/08/10 02:03:28;;;;;;;;;;;;;;;17.98;74.92;100544.86;1637750;87;20162;-89
2021/08/10 02:05:54;;;;;;;;;;;;;;;17.96;75.47;100545.54;1635244;85;20180;-89
2021/08/10 02:08:19;;;;;;;;;;;;;;;17.99;75.38;100543.81;1636252;86;20174;-89
2021/08/10 02:10:46;;;;;;;;;;;;;;;18.03;74.86;100551.25;1644709;85;21980;-89
2021/08/10 02:13:13;;;;;;;;;;;;;;;18.02;75.22;100548.77;1640491;85;20222;-88
2021/08/10 02:15:40;;;;;;;;;;;;;;;17.88;75.77;100546.48;1639418;86;20137;-89
2021/08/10 02:18:05;;;;;;;;;;;;;;;17.81;76.23;100543.77;1639109;86;20195;-88
2021/08/10 02:20:33;;;;;;;;;;;;;;;17.75;77.00;100552.55;1637551;87;20160;-87
2021/08/10 02:23:00;;;;;;;;;;;;;;;17.67;77.68;100550.03;1636425;85;20450;-89
2021/08/10 02:25:25;;;;;;;;;;;;;;;17.62;77.72;100548.43;1641004;87;20179;-88
2021/08/10 02:27:58;;;;;;;;;;;;;;;17.59;77.62;100548.33;1641523;87;20139;-89
2021/08/10 02:30:28;;;;;;;;;;;;;;;17.54;77.80;100547.56;1637980;86;20972;-90
2021/08/10 02:32:54;;;;;;;;;;;;;;;17.48;78.25;100542.99;1640999;87;20152;-91
2021/08/10 02:35:21;;;;;;;;;;;;;;;17.49;77.76;100539.80;1639579;86;21100;-91
2021/08/10 02:37:46;;;;;;;;;;;;;;;17.50;77.18;100532.94;1641256;87;20178;-90
2021/08/10 02:40:13;;;;;;;;;;;;;;;17.51;76.93;100524.41;1639318;85;20151;-89
2021/08/10 02:42:39;;;;;;;;;;;;;;;17.54;76.65;100532.88;1639486;87;20267;-90
2021/08/10 02:45:05;;;;;;;;;;;;;;;17.58;76.14;100534.12;1638821;85;20138;-90
2021/08/10 02:47:31;;;;;;;;;;;;;;;17.67;75.39;100534.83;1638305;85;20994;-90
2021/08/10 02:49:56;;;;;;;;;;;;;;;17.74;75.20;100534.87;1637239;86;20740;-89
2021/08/10 02:52:22;;;;;;;;;;;;;;;17.77;74.95;100534.48;1637272;87;20174;-90
2021/08/10 02:54:48;;;;;;;;;;;;;;;17.84;74.57;100533.22;1639277;87;20179;-90
2021/08/10 02:57:26;;;;;;;;;;;;;;;17.89;74.23;100534.81;1636156;87;20135;-91
2021/08/10 03:00:01;;;;;;;;;;;;;;;17.94;73.88;100533.22;1637758;87;21110;-91
2021/08/10 03:02:29;;;;;;;;;;;;;;;17.95;73.63;100535.37;1640176;87;20280;-92
2021/08/10 03:04:59;;;;;;;;;;;;;;;17.93;73.82;100538.76;1640056;87;20147;-89
2021/08/10 03:07:25;;;;;;;;;;;;;;;18.01;73.78;100543.13;1604475;87;20599;-89
2021/08/10 03:09:52;;;;;;;;;;;;;;;18.04;73.66;100545.41;1639519;87;20211;-90
2021/08/10 03:12:18;;;;;;;;;;;;;;;18.03;73.97;100543.75;1605257;87;21086;-90
2021/08/10 03:14:44;;;;;;;;;;;;;;;17.98;74.23;100542.18;1636346;87;20151;-90
2021/08/10 03:17:11;;;;;;;;;;;;;;;17.89;74.87;100544.98;1641958;87;20191;-90
2021/08/10 03:19:37;;;;;;;;;;;;;;;17.82;74.96;100534.74;1642158;85;20180;-90
2021/08/10 03:22:04;;;;;;;;;;;;;;;17.81;75.08;100543.77;1641392;85;20138;-90
2021/08/10 03:24:29;;;;;;;;;;;;;;;17.77;75.30;100539.83;1639259;85;21322;-91
2021/08/10 03:26:55;;;;;;;;;;;;;;;17.76;75.23;100535.52;1637364;85;21094;-91
2021/08/10 03:29:21;;;;;;;;;;;;;;;17.73;75.37;100535.91;1639742;85;20217;-88
2021/08/10 03:31:46;;;;;;;;;;;;;;;17.71;75.44;100529.91;1641024;85;20281;-90
2021/08/10 03:34:12;;;;;;;;;;;;;;;17.70;75.68;100526.95;1637273;87;20223;-90
2021/08/10 03:36:39;;;;;;;;;;;;;;;17.71;75.90;100529.91;1637706;85;21114;-90
2021/08/10 03:39:04;;;;;;;;;;;;;;;17.68;76.19;100527.63;1636802;87;20126;-91
2021/08/10 03:41:30;;;;;;;;;;;;;;;17.67;76.00;100528.67;1640509;86;20483;-90
2021/08/10 03:43:55;;;;;;;;;;;;;;;17.72;75.80;100531.58;1637623;87;20162;-91
2021/08/10 03:46:21;;;;;;;;;;;;;;;17.82;75.41;100522.72;1639161;87;20127;-91
2021/08/10 03:48:46;;;;;;;;;;;;;;;17.88;75.42;100519.77;1635645;87;21870;-90
2021/08/10 03:51:12;;;;;;;;;;;;;;;17.94;75.26;100523.02;1584104;85;20459;-90
2021/08/10 03:53:39;;;;;;;;;;;;;;;18.00;75.13;100528.10;1639146;87;20284;-90
2021/08/10 03:56:06;;;;;;;;;;;;;;;18.00;75.78;100529.44;1633256;86;20262;-91
2021/08/10 03:58:35;;;;;;;;;;;;;;;17.98;75.96;100527.48;1633917;86;20180;-91
2021/08/10 04:01:01;;;;;;;;;;;;;;;17.94;76.70;100523.87;1637182;86;21164;-91
2021/08/10 04:03:32;;;;;;;;;;;;;;;17.93;76.42;100518.20;1637678;85;20167;-91
2021/08/10 04:06:00;;;;;;;;;;;;;;;18.03;76.49;100515.69;1637147;85;20231;-90
2021/08/10 04:08:26;;;;;;;;;;;;;;;18.00;76.46;100517.41;1635223;85;20226;-90
2021/08/10 04:10:51;;;;;;;;;;;;;;;18.02;76.62;100526.05;1640890;85;20162;-91
2021/08/10 04:13:17;;;;;;;;;;;;;;;17.91;77.46;100523.41;1640905;87;21071;-91
2021/08/10 04:15:44;;;;;;;;;;;;;;;17.88;78.14;100519.77;1642394;85;20269;-90
2021/08/10 04:18:17;;;;;;;;;;;;;;;17.83;78.43;100520.34;1637765;85;20178;-91
2021/08/10 04:20:49;;;;;;;;;;;;;;;17.81;78.86;100520.25;1639442;86;20193;-90
2021/08/10 04:23:15;;;;;;;;;;;;;;;17.78;79.37;100517.96;1637127;85;20195;-91
2021/08/10 04:25:40;;;;;;;;;;;;;;;17.78;79.73;100525.45;1640954;86;21096;-91
2021/08/10 04:28:06;;;;;;;;;;;;;;;17.78;79.86;100524.13;1636966;85;20151;-90
2021/08/10 04:30:31;;;;;;;;;;;;;;;17.80;80.29;100523.41;1639674;87;20202;-91
2021/08/10 04:32:57;;;;;;;;;;;;;;;17.85;80.15;100519.66;1637845;85;20435;-91
2021/08/10 04:35:22;;;;;;;;;;;;;;;17.91;79.85;100518.06;1638898;86;20150;-91
2021/08/10 04:37:48;;;;;;;;;;;;;;;17.97;79.84;100527.16;1641154;86;21231;-90
2021/08/10 04:40:14;;;;;;;;;;;;;;;18.07;79.54;100527.62;1641073;87;20360;-88
2021/08/10 04:42:39;;;;;;;;;;;;;;;18.15;79.39;100530.64;1639048;87;20170;-90
2021/08/10 04:45:05;;;;;;;;;;;;;;;18.27;79.07;100532.59;1641438;86;20445;-90
2021/08/10 04:47:31;;;;;;;;;;;;;;;18.34;78.78;100532.61;1641136;87;20168;-89
2021/08/10 04:49:58;;;;;;;;;;;;;;;18.38;78.47;100531.20;1640377;87;21113;-91
2021/08/10 04:52:23;;;;;;;;;;;;;;;18.41;78.25;100528.14;1637438;85;20186;-91
2021/08/10 04:54:49;;;;;;;;;;;;;;;18.45;77.92;100521.87;1638701;87;20206;-90
2021/08/10 04:57:15;;;;;;;;;;;;;;;18.55;77.62;100518.81;1641446;87;20406;-90
2021/08/10 04:59:40;;;;;;;;;;;;;;;18.64;77.03;100518.95;1641431;86;20153;-91
2021/08/10 05:02:06;;;;;;;;;;;;;;;18.65;76.99;100528.13;1641513;85;21195;-90
2021/08/10 05:04:31;;;;;;;;;;;;;;;18.64;77.44;100527.83;1635375;86;20500;-90
2021/08/10 05:06:57;;;;;;;;;;;;;;;18.74;77.66;100517.27;1638991;85;20166;-90
2021/08/10 05:09:22;;;;;;;;;;;;;;;18.86;77.67;100521.53;1636941;87;20496;-91
2021/08/10 05:11:48;;;;;;;;;;;;;;;18.96;77.51;100521.45;1639089;87;20135;-90
2021/08/10 05:14:14;;;;;;;;;;;;;;;19.05;77.61;100525.27;1642650;87;21121;-89
2021/08/10 05:16:39;;;;;;;;;;;;;;;19.01;77.72;100531.03;1641244;85;20222;-89
2021/08/10 05:19:05;;;;;;;;;;;;;;;19.08;77.68;100530.22;1642723;86;20147;-90
2021/08/10 05:21:30;;;;;;;;;;;;;;;19.08;77.87;100533.74;1636948;87;20131;-91
2021/08/10 05:23:56;;;;;;;;;;;;;;;19.18;78.28;100538.70;1640285;85;21266;-91
2021/08/10 05:26:21;;;;;;;;;;;;;;;19.26;78.57;100543.85;1643445;85;21143;-90
2021/08/10 05:28:47;;;;;;;;;;;;;;;19.32;78.65;100541.70;1641502;87;20190;-91
2021/08/10 05:31:13;;;;;;;;;;;;;;;19.42;78.42;100544.48;1639376;86;20143;-90
2021/08/10 05:33:38;;;;;;;;;;;;;;;19.45;77.98;100540.06;1604889;87;21224;-91
2021/08/10 05:36:04;;;;;;;;;;;;;;;19.50;77.94;100538.95;1637897;87;20135;-91
2021/08/10 05:38:29;;;;;;;;;;;;;;;19.55;77.80;100531.11;1639081;87;21825;-91
2021/08/10 05:40:55;;;;;;;;;;;;;;;19.61;77.98;100530.78;1639572;87;20175;-91
2021/08/10 05:43:21;;;;;;;;;;;;;;;19.64;77.98;100529.88;1639595;87;20185;-89
2021/08/10 05:45:46;;;;;;;;;;;;;;;19.76;77.88;100526.56;1637767;87;20456;-90
2021/08/10 05:48:14;;;;;;;;;;;;;;;19.85;77.29;100522.67;1637293;87;20154;-90
2021/08/10 05:50:40;;;;;;;;;;;;;;;19.93;77.03;100517.08;1638114;85;22176;-91
2021/08/10 05:53:06;;;;;;;;;;;;;;;20.01;77.03;100516.88;1637095;85;20235;-90
2021/08/10 05:55:31;;;;;;;;;;;;;;;20.06;77.22;100517.06;1639610;85;20724;-90
2021/08/10 05:57:57;;;;;;;;;;;;;;;20.15;76.45;100519.52;1639096;86;20135;-90
2021/08/10 06:00:22;;;;;;;;;;;;;;;20.26;76.52;100520.23;1640869;86;20142;-92
2021/08/10 06:02:48;;;;;;;;;;;;;;;20.37;76.09;100526.77;1638469;87;22700;-89
2021/08/10 06:05:13;;;;;;;;;;;;;;;20.45;75.81;100528.70;1638447;87;20206;-91
2021/08/10 06:07:39;;;;;;;;;;;;;;;20.56;75.37;100527.22;1637688;86;20441;-91
2021/08/10 06:10:05;;;;;;;;;;;;;;;20.71;75.02;100531.02;1639788;87;20162;-92
2021/08/10 06:12:30;;;;;;;;;;;;;;;20.82;73.65;100528.67;1633606;87;21184;-91
2021/08/10 06:14:56;;;;;;;;;;;;;;;20.90;73.28;100528.45;1636143;87;21187;-93
2021/08/10 06:17:21;;;;;;;;;;;;;;;20.97;72.91;100524.69;1637624;86;20466;-92
2021/08/10 06:19:50;;;;;;;;;;;;;;;21.07;72.73;100530.92;1641963;85;20154;-91
2021/08/10 06:22:16;;;;;;;;;;;;;;;21.21;72.19;100530.81;1639295;86;20134;-88
2021/08/10 06:24:42;;;;;;;;;;;;;;;21.26;72.15;100525.63;1636628;86;20182;-90
2021/08/10 06:27:07;;;;;;;;;;;;;;;21.36;72.02;100524.61;1638010;87;21117;-90
2021/08/10 06:29:33;;;;;;;;;;;;;;;21.47;72.06;100521.23;1634817;87;20256;-88
2021/08/10 06:31:59;;;;;;;;;;;;;;;21.55;72.90;100516.14;1639498;86;20355;-90
2021/08/10 06:34:24;;;;;;;;;;;;;;;21.66;72.52;100517.28;1639881;86;20969;-90
2021/08/10 06:36:50;;;;;;;;;;;;;;;21.69;73.14;100517.66;1634964;87;21517;-88
2021/08/10 06:39:15;;;;;;;;;;;;;;;21.75;73.35;100518.66;1639476;87;21142;-89
2021/08/10 06:41:41;;;;;;;;;;;;;;;21.89;73.59;100528.73;1637144;87;20166;-90
2021/08/10 06:44:06;;;;;;;;;;;;;;;21.96;73.08;100528.69;1634107;87;20236;-90
2021/08/10 06:46:32;;;;;;;;;;;;;;;22.01;73.14;100530.17;1638911;87;20138;-91
2021/08/10 06:48:57;;;;;;;;;;;;;;;22.10;72.51;100526.16;1637520;86;20440;-89
2021/08/10 06:51:23;;;;;;;;;;;;;;;22.19;72.33;100527.50;1638635;87;21087;-88
2021/08/10 06:53:49;;;;;;;;;;;;;;;22.29;71.98;100532.88;1638105;87;20192;-91
2021/08/10 06:56:14;;;;;;;;;;;;;;;22.39;71.93;100527.84;1641022;86;20296;-92
2021/08/10 06:58:40;;;;;;;;;;;;;;;22.45;71.29;100526.94;1636577;87;20448;-89
2021/08/10 07:01:05;;;;;;;;;;;;;;;22.54;70.83;100526.94;1633864;86;20143;-91
2021/08/10 07:03:36;;;;;;;;;;;;;;;22.61;70.75;100526.84;1634411;87;21151;-91
2021/08/10 07:06:02;;;;;;;;;;;;;;;22.75;69.67;100518.06;1635823;87;20189;-89
2021/08/10 07:08:28;;;;;;;;;;;;;;;22.86;69.99;100520.51;1635178;87;20378;-91
2021/08/10 07:10:53;;;;;;;;;;;;;;;22.98;69.77;100511.10;1633584;87;20261;-90
2021/08/10 07:13:19;;;;;;;;;;;;;;;23.06;69.74;100506.22;1635381;87;20696;-91
2021/08/10 07:15:45;;;;;;;;;;;;;;;23.15;69.54;100512.14;1632813;86;21080;-91
2021/08/10 07:18:10;;;;;;;;;;;;;;;23.11;68.58;100506.91;1629484;87;20170;-90
2021/08/10 07:20:36;;;;;;;;;;;;;;;23.10;68.47;100502.56;1634432;86;20500;-91
2021/08/10 07:23:01;;;;;;;;;;;;;;;23.21;69.28;100506.34;1632061;87;20504;-91
2021/08/10 07:25:27;;;;;;;;;;;;;;;23.34;68.97;100499.91;1607606;87;20194;-90
2021/08/10 07:27:52;;;;;;;;;;;;;;;23.43;68.40;100501.20;1635663;86;21855;-89
2021/08/10 07:30:18;;;;;;;;;;;;;;;23.43;67.90;100507.95;1610559;86;21643;-90
2021/08/10 07:32:45;;;;;;;;;;;;;;;23.50;67.76;100504.63;1636400;86;20231;-90
2021/08/10 07:35:11;;;;;;;;;;;;;;;23.60;67.65;100502.18;1635864;86;20199;-91
2021/08/10 07:37:42;;;;;;;;;;;;;;;23.69;67.40;100505.87;1632690;86;20269;-90
2021/08/10 07:40:10;;;;;;;;;;;;;;;23.76;65.70;100503.88;1632742;86;21112;-91
2021/08/10 07:42:35;;;;;;;;;;;;;;;23.77;65.04;100497.41;1634253;87;20174;-90
2021/08/10 07:45:01;;;;;;;;;;;;;;;23.81;64.67;100497.25;1633487;87;20139;-91
2021/08/10 07:47:26;;;;;;;;;;;;;;;23.86;64.56;100493.88;1632012;87;21031;-92
2021/08/10 07:49:52;;;;;;;;;;;;;;;23.94;64.95;100497.05;1631395;86;20127;-89
2021/08/10 07:52:17;;;;;;;;;;;;;;;24.00;64.30;100496.09;1636089;87;21189;-91
2021/08/10 07:54:43;;;;;;;;;;;;;;;23.99;63.11;100494.45;1634220;87;20235;-91
2021/08/10 07:57:09;;;;;;;;;;;;;;;23.96;61.83;100497.62;1632731;87;20184;-89
2021/08/10 07:59:34;;;;;;;;;;;;;;;24.09;62.62;100495.72;1639371;86;20111;-90
2021/08/10 08:02:00;;;;;;;;;;;;;;;24.16;62.05;100494.53;1623035;87;20128;-91
2021/08/10 08:04:25;;;;;;;;;;;;;;;24.27;62.60;100502.31;1607145;87;21132;-89
2021/08/10 08:06:51;;;;;;;;;;;;;;;24.33;61.89;100495.97;1614845;87;20965;-90
2021/08/10 08:09:17;;;;;;;;;;;;;;;24.38;60.40;100498.75;1620400;87;20160;-91
2021/08/10 08:11:42;;;;;;;;;;;;;;;24.46;59.98;100500.80;1615132;87;20682;-89
2021/08/10 08:14:08;;;;;;;;;;;;;;;24.50;58.53;100500.59;1624272;87;20157;-91
2021/08/10 08:16:33;;;;;;;;;;;;;;;24.43;58.11;100495.88;1616535;87;21867;-91
2021/08/10 08:18:59;;;;;;;;;;;;;;;24.46;58.97;100498.09;1609868;87;20280;-91
2021/08/10 08:21:25;;;;;;;;;;;;;;;24.57;58.55;100493.72;1618545;87;20177;-90
2021/08/10 08:23:51;;;;;;;;;;;;;;;24.64;59.25;100493.89;1618097;87;20181;-90
2021/08/10 08:26:21;;;;;;;;;;;;;;;24.74;59.14;100491.91;1607685;87;20180;-91
2021/08/10 08:28:47;;;;;;;;;;;;;;;24.86;58.72;100502.64;1615390;87;21151;-90
2021/08/10 08:31:12;;;;;;;;;;;;;;;24.97;58.37;100496.38;1612165;87;20187;-90
2021/08/10 08:33:38;;;;;;;;;;;;;;;25.08;57.61;100498.18;1612377;87;20150;-91
2021/08/10 08:36:04;;;;;;;;;;;;;;;25.13;55.85;100502.05;1619083;87;20658;-91
2021/08/10 08:38:29;;;;;;;;;;;;;;;25.22;54.88;100501.39;1606132;87;20318;-91
2021/08/10 08:40:55;;;;;;;;;;;;;;;25.27;55.21;100497.41;1613329;87;21130;-90
2021/08/10 08:43:22;;;;;;;;;;;;;;;25.38;54.72;100497.08;1615877;87;20307;-91
2021/08/10 08:45:48;;;;;;;;;;;;;;;25.47;54.20;100499.38;1616936;87;20168;-90
2021/08/10 08:48:14;;;;;;;;;;;;;;;25.59;54.05;100498.22;1608897;87;20611;-90
2021/08/10 08:50:40;;;;;;;;;;;;;;;25.66;52.03;100499.93;1618563;87;21009;-91
2021/08/10 08:53:06;;;;;;;;;;;;;;;25.68;51.85;100489.13;1612841;87;22003;-91
2021/08/10 08:55:32;;;;;;;;;;;;;;;25.79;52.75;100491.45;1611811;87;20329;-90
2021/08/10 08:58:01;;;;;;;;;;;;;;;25.88;51.68;100494.56;1615850;87;20153;-91
2021/08/10 09:00:26;;;;;;;;;;;;;;;25.94;51.09;100497.08;1626445;86;20324;-91
2021/08/10 09:02:52;;;;;;;;;;;;;;;26.02;51.06;100495.85;1639615;87;20146;-90
2021/08/10 09:05:17;;;;;;;;;;;;;;;26.05;48.74;100489.94;1636674;86;21176;-91
2021/08/10 09:07:43;;;;;;;;;;;;;;;26.14;48.94;100488.44;1640488;86;20196;-91
2021/08/10 09:10:16;;;;;;;;;;;;;;;26.17;47.57;100487.13;1637970;87;20154;-90
2021/08/10 09:12:46;;;;;;;;;;;;;;;26.23;47.13;100483.41;1641341;87;20120;-90
2021/08/10 09:15:32;;;;;;;;;;;;;;;26.27;46.22;100485.06;1638413;87;20216;-90
2021/08/10 09:18:12;;;;;;;;;;;;;;;26.36;47.49;100484.91;1638911;86;21177;-91
2021/08/10 09:20:39;;;;;;;;;;;;;;;26.40;46.31;100486.05;1635794;86;20195;-91
2021/08/10 09:23:04;;;;;;;;;;;;;;;26.47;46.68;100488.00;1640958;86;20192;-91
2021/08/10 09:25:31;;;;;;;;;;;;;;;26.53;46.45;100478.59;1637518;87;20169;-90
2021/08/10 09:28:09;;;;;;;;;;;;;;;26.54;46.64;100482.92;1638903;87;20425;-90
2021/08/10 09:30:35;;;;;;;;;;;;;;;26.56;46.85;100480.80;1640065;87;21088;-89
2021/08/10 09:33:01;;;;;;;;;;;;;;;26.66;47.01;100478.20;1646492;86;20111;-89
2021/08/10 09:35:31;;;;;;;;;;;;;;;26.67;46.01;100475.79;1621809;87;20104;-89
2021/08/10 09:38:16;;;;;;;;;;;;;;;26.76;45.98;100474.80;1631454;86;20155;-89
2021/08/10 09:40:51;;;;;;;;;;;;;;;26.80;46.96;100469.13;1632225;87;20092;-90
2021/08/10 09:43:24;;;;;;;;;;;;;;;26.85;46.31;100467.30;1632953;87;20147;-88
2021/08/10 09:45:49;;;;;;;;;;;;;;;26.86;46.53;100466.23;1631015;87;20093;-89
2021/08/10 09:48:15;;;;;;;;;;;;;;;26.91;46.73;100472.75;1603012;87;20146;-87
2021/08/10 09:50:41;;;;;;;;;;;;;;;26.94;46.49;100458.17;1636472;87;20164;-87
2021/08/10 09:53:17;;;;;;;;;;;;;;;27.04;46.56;100462.86;1628839;87;20151;-89
2021/08/10 09:55:54;;;;;;;;;;;;;;;27.13;47.10;100460.47;1632515;87;21091;-90
2021/08/10 09:58:21;;;;;;;;;;;;;;;27.26;46.96;100459.23;1623522;87;20186;-89
2021/08/10 10:00:50;;;;;;;;;;;;;;;27.35;45.60;100454.99;1630562;87;20166;-88
2021/08/10 10:03:17;;;;;;;;;;;;;;;27.36;45.35;100446.59;1614851;87;20253;-90
2021/08/10 10:05:46;;;;;;;;;;;;;;;27.39;44.96;100445.23;1638190;87;20512;-89
2021/08/10 10:08:17;;;;;;;;;;;;;;;27.36;44.86;100436.27;1635611;87;22345;-88
2021/08/10 10:10:42;;;;;;;;;;;;;;;27.35;44.81;100437.36;1639019;87;20202;-89
2021/08/10 10:13:14;;;;;;;;;;;;;;;27.46;45.74;100428.20;1640375;86;20158;-88
2021/08/10 10:15:42;;;;;;;;;;;;;;;27.50;44.66;100425.25;1616479;87;38169;-89
2021/08/10 10:18:10;;;;;;;;;;;;;;;27.57;44.84;100417.68;1639314;87;20441;-90
2021/08/10 10:20:36;;;;;;;;;;;;;;;27.62;44.67;100416.08;1638103;87;21126;-89
2021/08/10 10:23:03;;;;;;;;;;;;;;;27.56;44.88;100409.28;1634434;86;20139;-91
2021/08/10 10:25:28;;;;;;;;;;;;;;;27.54;45.01;100412.78;1639350;86;20297;-91
2021/08/10 10:27:55;;;;;;;;;;;;;;;27.61;46.28;100407.14;1636849;86;20167;-90
2021/08/10 10:30:21;;;;;;;;;;;;;;;27.67;46.79;100407.96;1636094;87;20190;-88
2021/08/10 10:32:46;;;;;;;;;;;;;;;27.75;46.46;100404.22;1636820;87;21107;-89
2021/08/10 10:35:12;;;;;;;;;;;;;;;27.81;46.07;100403.70;1637767;85;20191;-89
2021/08/10 10:37:38;;;;;;;;;;;;;;;27.83;45.79;100398.82;1635756;87;20186;-91
2021/08/10 10:40:05;;;;;;;;;;;;;;;27.91;45.87;100401.02;1637013;87;20830;-88
2021/08/10 10:42:32;;;;;;;;;;;;;;;28.00;46.28;100412.22;1616682;87;20187;-90
2021/08/10 10:44:57;;;;;;;;;;;;;;;27.96;45.37;100403.52;1637971;86;21903;-91
2021/08/10 10:47:34;;;;;;;;;;;;;;;28.02;46.18;100403.81;1630879;86;20224;-90
2021/08/10 10:50:02;;;;;;;;;;;;;;;27.89;45.00;100399.11;1636937;87;20143;-90
2021/08/10 10:52:29;;;;;;;;;;;;;;;27.74;44.74;100402.57;1634346;87;20162;-91
2021/08/10 10:54:55;;;;;;;;;;;;;;;27.71;45.53;100406.36;1634108;87;20173;-90
2021/08/10 10:57:31;;;;;;;;;;;;;;;27.87;45.63;100394.47;1633174;86;21153;-90
2021/08/10 11:00:12;;;;;;;;;;;;;;;27.92;46.58;100394.52;1628153;86;20215;-89
2021/08/10 11:02:38;;;;;;;;;;;;;;;28.00;46.74;100384.23;1615976;87;20273;-91
2021/08/10 11:05:12;;;;;;;;;;;;;;;28.15;46.84;100386.99;1624801;86;20179;-90
2021/08/10 11:07:39;;;;;;;;;;;;;;;28.05;46.56;100389.70;1617271;88;20180;-90
2021/08/10 11:10:10;;;;;;;;;;;;;;;28.00;45.50;100393.73;1621575;88;21044;-91
2021/08/10 11:12:44;;;;;;;;;;;;;;;27.90;45.94;100387.70;1638416;87;20171;-90
2021/08/10 11:15:23;;;;;;;;;;;;;;;27.98;45.59;100386.41;1639546;87;20477;-90
2021/08/10 11:18:09;;;;;;;;;;;;;;;28.16;46.54;100380.48;1641988;87;20535;-90
2021/08/10 11:20:43;;;;;;;;;;;;;;;28.34;47.39;100384.61;1640017;86;20187;-89
2021/08/10 11:23:23;;;;;;;;;;;;;;;28.49;47.32;100386.52;1639473;85;21290;-89
2021/08/10 11:25:52;;;;;;;;;;;;;;;28.53;46.20;100371.31;1633554;87;20166;-89
2021/08/10 11:28:36;;;;;;;;;;;;;;;28.47;46.14;100370.48;1634655;86;20214;-89
2021/08/10 11:31:03;;;;;;;;;;;;;;;28.47;46.52;100366.95;1637921;87;20191;-92
2021/08/10 11:33:36;;;;;;;;;;;;;;;28.42;46.70;100353.38;1640486;87;20595;-88
2021/08/10 11:36:15;;;;;;;;;;;;;;;28.48;47.12;100353.66;1641428;86;21867;-90
2021/08/10 11:38:51;;;;;;;;;;;;;;;28.53;47.50;100349.58;1643144;85;20184;-89
2021/08/10 11:41:36;;;;;;;;;;;;;;;28.60;47.71;100339.27;1636843;86;20221;-89
2021/08/10 11:44:04;;;;;;;;;;;;;;;28.56;47.99;100348.23;1641192;87;20986;-89
2021/08/10 11:46:34;;;;;;;;;;;;;;;28.44;47.47;100338.42;1609167;87;20194;-89
2021/08/10 11:49:06;;;;;;;;;;;;;;;28.37;47.66;100335.18;1640551;87;21351;-90
2021/08/10 11:51:38;;;;;;;;;;;;;;;28.32;47.24;100330.28;1637535;86;20247;-90
2021/08/10 11:54:08;;;;;;;;;;;;;;;28.26;46.96;100327.56;1636677;87;20442;-90
2021/08/10 11:56:38;;;;;;;;;;;;;;;28.20;46.57;100332.72;1638453;87;20247;-90
2021/08/10 11:59:12;;;;;;;;;;;;;;;28.03;46.83;100324.81;1635288;86;20250;-89
2021/08/10 12:01:37;;;;;;;;;;;;;;;27.94;47.46;100320.41;1638398;85;20203;-90
2021/08/10 12:04:18;;;;;;;;;;;;;;;27.90;47.68;100325.28;1637343;87;20195;-89
2021/08/10 12:06:45;;;;;;;;;;;;;;;27.86;47.84;100316.87;1639562;86;20121;-90
2021/08/10 12:09:15;;;;;;;;;;;;;;;27.86;48.73;100311.44;1637375;87;20188;-90
2021/08/10 12:11:42;;;;;;;;;;;;;;;27.96;49.63;100307.15;1641404;87;20152;-90
2021/08/10 12:14:12;;;;;;;;;;;;;;;28.03;49.31;100288.16;1639653;87;21104;-88
2021/08/10 12:16:40;;;;;;;;;;;;;;;28.06;48.45;100288.98;1639543;85;20152;-89
2021/08/10 12:19:05;;;;;;;;;;;;;;;28.05;48.67;100281.10;1610774;87;20143;-92
2021/08/10 12:21:42;;;;;;;;;;;;;;;28.06;49.42;100280.00;1634002;86;20178;-92
2021/08/10 12:24:10;;;;;;;;;;;;;;;28.03;49.17;100275.11;1635408;87;20551;-88
2021/08/10 12:26:36;;;;;;;;;;;;;;;28.11;49.02;100271.88;1601373;86;21552;-90
2021/08/10 12:29:01;;;;;;;;;;;;;;;28.22;49.72;100276.22;1637707;87;20424;-89
2021/08/10 12:31:28;;;;;;;;;;;;;;;28.17;49.27;100270.80;1637560;86;20148;-89
2021/08/10 12:33:55;;;;;;;;;;;;;;;28.21;49.09;100261.00;1640510;86;20254;-90
2021/08/10 12:36:21;;;;;;;;;;;;;;;28.25;49.67;100259.39;1638914;86;20230;-90
2021/08/10 12:38:46;;;;;;;;;;;;;;;28.20;49.57;100262.11;1636334;86;21024;-90